sensor_id;sensor_type;location;lat;lon;timestamp;temperature;humidity
16532;DHT22;8378;57.698;11.958;2022-10-14T00:00:13;22.40;99.90
16532;DHT22;8378;57.698;11.958;2022-10-14T00:02:39;22.40;99.90
16532;DHT22;8378;57.698;11.958;2022-10-14T00:05:05;22.40;99.90
16532;DHT22;8378;57.698;11.958;2022-10-14T00:07:31;22.40;99.90
16532;DHT22;8378;57.698;11.958;2022-10-14T00:09:57;22.40;99.90
16532;DHT22;8378;57.698;11.958;2022-10-14T00:12:23;22.40;99.90
16532;DHT22;8378;57.698;11.958;2022-10-14T00:14:48;22.40;99.90
16532;DHT22;8378;57.698;11.958;2022-10-14T00:17:14;22.40;99.90
16532;DHT22;8378;57.698;11.958;2022-10-14T00:19:39;22.40;99.90
16532;DHT22;8378;57.698;11.958;2022-10-14T00:22:05;22.40;99.90
16532;DHT22;8378;57.698;11.958;2022-10-14T00:24:30;22.40;99.90
16532;DHT22;8378;57.698;11.958;2022-10-14T00:26:56;22.40;99.90
16532;DHT22;8378;57.698;11.958;2022-10-14T00:29:22;22.40;99.90
16532;DHT22;8378;57.698;11.958;2022-10-14T00:31:47;22.40;99.90
16532;DHT22;8378;57.698;11.958;2022-10-14T00:34:13;22.40;99.90
16532;DHT22;8378;57.698;11.958;2022-10-14T00:36:40;22.40;99.90
16532;DHT22;8378;57.698;11.958;2022-10-14T00:39:07;22.40;99.90
16532;DHT22;8378;57.698;11.958;2022-10-14T00:41:34;22.40;99.90
16532;DHT22;8378;57.698;11.958;2022-10-14T00:46:35;22.40;99.90
16532;DHT22;8378;57.698;11.958;2022-10-14T00:51:36;22.40;99.90
16532;DHT22;8378;57.698;11.958;2022-10-14T00:54:03;22.30;99.90
16532;DHT22;8378;57.698;11.958;2022-10-14T00:56:29;22.30;99.90
16532;DHT22;8378;57.698;11.958;2022-10-14T00:58:55;22.30;99.90
16532;DHT22;8378;57.698;11.958;2022-10-14T01:01:22;22.30;99.90
16532;DHT22;8378;57.698;11.958;2022-10-14T01:03:47;22.40;99.90
16532;DHT22;8378;57.698;11.958;2022-10-14T01:06:21;22.30;99.90
16532;DHT22;8378;57.698;11.958;2022-10-14T01:09:25;22.40;99.90
16532;DHT22;8378;57.698;11.958;2022-10-14T01:14:59;22.30;99.90
16532;DHT22;8378;57.698;11.958;2022-10-14T01:18:34;22.30;99.90
16532;DHT22;8378;57.698;11.958;2022-10-14T01:26:26;22.30;99.90
16532;DHT22;8378;57.698;11.958;2022-10-14T01:29:11;22.30;99.90
16532;DHT22;8378;57.698;11.958;2022-10-14T01:31:47;22.30;99.90
16532;DHT22;8378;57.698;11.958;2022-10-14T01:34:19;22.30;99.90
16532;DHT22;8378;57.698;11.958;2022-10-14T01:36:55;22.30;99.90
16532;DHT22;8378;57.698;11.958;2022-10-14T01:39:30;22.30;99.90
16532;DHT22;8378;57.698;11.958;2022-10-14T01:42:05;22.30;99.90
16532;DHT22;8378;57.698;11.958;2022-10-14T01:44:34;22.30;99.90
16532;DHT22;8378;57.698;11.958;2022-10-14T01:47:01;22.30;99.90
16532;DHT22;8378;57.698;11.958;2022-10-14T01:49:41;22.30;99.90
16532;DHT22;8378;57.698;11.958;2022-10-14T01:52:12;22.30;99.90
16532;DHT22;8378;57.698;11.958;2022-10-14T01:54:46;22.30;99.90
16532;DHT22;8378;57.698;11.958;2022-10-14T01:57:16;22.30;99.90
16532;DHT22;8378;57.698;11.958;2022-10-14T01:59:44;22.30;99.90
16532;DHT22;8378;57.698;11.958;2022-10-14T02:02:13;22.30;99.90
16532;DHT22;8378;57.698;11.958;2022-10-14T02:04:38;22.30;99.90
16532;DHT22;8378;57.698;11.958;2022-10-14T02:17:37;22.30;99.90
16532;DHT22;8378;57.698;11.958;2022-10-14T02:20:20;22.30;99.90
16532;DHT22;8378;57.698;11.958;2022-10-14T02:22:56;22.30;99.90
16532;DHT22;8378;57.698;11.958;2022-10-14T02:25:34;22.30;99.90
16532;DHT22;8378;57.698;11.958;2022-10-14T02:28:02;22.30;99.90
16532;DHT22;8378;57.698;11.958;2022-10-14T02:30:32;22.30;99.90
16532;DHT22;8378;57.698;11.958;2022-10-14T02:32:59;22.30;99.90
16532;DHT22;8378;57.698;11.958;2022-10-14T02:35:25;22.30;99.90
16532;DHT22;8378;57.698;11.958;2022-10-14T02:37:52;22.30;99.90
16532;DHT22;8378;57.698;11.958;2022-10-14T02:40:32;22.30;99.90
16532;DHT22;8378;57.698;11.958;2022-10-14T02:43:00;22.30;99.90
16532;DHT22;8378;57.698;11.958;2022-10-14T02:45:26;22.30;99.90
16532;DHT22;8378;57.698;11.958;2022-10-14T02:47:52;22.30;99.90
16532;DHT22;8378;57.698;11.958;2022-10-14T02:50:18;22.30;99.90
16532;DHT22;8378;57.698;11.958;2022-10-14T02:52:44;22.30;99.90
16532;DHT22;8378;57.698;11.958;2022-10-14T02:55:09;22.30;99.90
16532;DHT22;8378;57.698;11.958;2022-10-14T02:57:35;22.30;99.90
16532;DHT22;8378;57.698;11.958;2022-10-14T03:00:01;22.30;99.90
16532;DHT22;8378;57.698;11.958;2022-10-14T03:02:26;22.30;99.90
16532;DHT22;8378;57.698;11.958;2022-10-14T03:04:52;22.30;99.90
16532;DHT22;8378;57.698;11.958;2022-10-14T03:07:17;22.30;99.90
16532;DHT22;8378;57.698;11.958;2022-10-14T03:09:43;22.30;99.90
16532;DHT22;8378;57.698;11.958;2022-10-14T03:12:08;22.30;99.90
16532;DHT22;8378;57.698;11.958;2022-10-14T03:14:34;22.30;99.90
16532;DHT22;8378;57.698;11.958;2022-10-14T03:17:00;22.30;99.90
16532;DHT22;8378;57.698;11.958;2022-10-14T03:19:25;22.30;99.90
16532;DHT22;8378;57.698;11.958;2022-10-14T03:21:51;22.30;99.90
16532;DHT22;8378;57.698;11.958;2022-10-14T03:24:17;22.30;99.90
16532;DHT22;8378;57.698;11.958;2022-10-14T03:26:42;22.30;99.90
16532;DHT22;8378;57.698;11.958;2022-10-14T03:29:08;22.30;99.90
16532;DHT22;8378;57.698;11.958;2022-10-14T03:31:33;22.30;99.90
16532;DHT22;8378;57.698;11.958;2022-10-14T03:33:59;22.30;99.90
16532;DHT22;8378;57.698;11.958;2022-10-14T03:36:24;22.30;99.90
16532;DHT22;8378;57.698;11.958;2022-10-14T03:38:50;22.30;99.90
16532;DHT22;8378;57.698;11.958;2022-10-14T03:41:16;22.30;99.90
16532;DHT22;8378;57.698;11.958;2022-10-14T03:43:41;22.30;99.90
16532;DHT22;8378;57.698;11.958;2022-10-14T03:46:07;22.30;99.90
16532;DHT22;8378;57.698;11.958;2022-10-14T03:48:32;22.30;99.90
16532;DHT22;8378;57.698;11.958;2022-10-14T03:50:58;22.30;99.90
16532;DHT22;8378;57.698;11.958;2022-10-14T03:53:23;22.20;99.90
16532;DHT22;8378;57.698;11.958;2022-10-14T03:55:49;22.30;99.90
16532;DHT22;8378;57.698;11.958;2022-10-14T03:58:15;22.30;99.90
16532;DHT22;8378;57.698;11.958;2022-10-14T04:00:40;22.20;99.90
16532;DHT22;8378;57.698;11.958;2022-10-14T04:03:06;22.30;99.90
16532;DHT22;8378;57.698;11.958;2022-10-14T04:05:31;22.30;99.90
16532;DHT22;8378;57.698;11.958;2022-10-14T04:07:59;22.20;99.90
16532;DHT22;8378;57.698;11.958;2022-10-14T04:10:25;22.20;99.90
16532;DHT22;8378;57.698;11.958;2022-10-14T04:12:52;22.20;99.90
16532;DHT22;8378;57.698;11.958;2022-10-14T04:15:18;22.20;99.90
16532;DHT22;8378;57.698;11.958;2022-10-14T04:17:43;22.20;99.90
16532;DHT22;8378;57.698;11.958;2022-10-14T04:20:09;22.20;99.90
16532;DHT22;8378;57.698;11.958;2022-10-14T04:22:35;22.20;99.90
16532;DHT22;8378;57.698;11.958;2022-10-14T04:25:00;22.20;99.90
16532;DHT22;8378;57.698;11.958;2022-10-14T04:27:26;22.20;99.90
16532;DHT22;8378;57.698;11.958;2022-10-14T04:29:51;22.30;99.90
16532;DHT22;8378;57.698;11.958;2022-10-14T04:32:18;22.20;99.90
16532;DHT22;8378;57.698;11.958;2022-10-14T04:34:44;22.30;99.90
16532;DHT22;8378;57.698;11.958;2022-10-14T04:37:09;22.30;99.90
16532;DHT22;8378;57.698;11.958;2022-10-14T04:39:35;22.20;99.90
16532;DHT22;8378;57.698;11.958;2022-10-14T04:42:00;22.20;99.90
16532;DHT22;8378;57.698;11.958;2022-10-14T04:44:26;22.20;99.90
16532;DHT22;8378;57.698;11.958;2022-10-14T04:46:51;22.20;99.90
16532;DHT22;8378;57.698;11.958;2022-10-14T04:49:17;22.20;99.90
16532;DHT22;8378;57.698;11.958;2022-10-14T04:51:43;22.20;99.90
16532;DHT22;8378;57.698;11.958;2022-10-14T04:54:08;22.20;99.90
16532;DHT22;8378;57.698;11.958;2022-10-14T04:56:35;22.20;99.90
16532;DHT22;8378;57.698;11.958;2022-10-14T04:59:00;22.30;99.90
16532;DHT22;8378;57.698;11.958;2022-10-14T05:01:26;22.30;99.90
16532;DHT22;8378;57.698;11.958;2022-10-14T05:03:52;22.20;99.90
16532;DHT22;8378;57.698;11.958;2022-10-14T05:06:17;22.30;99.90
16532;DHT22;8378;57.698;11.958;2022-10-14T05:08:43;22.20;99.90
16532;DHT22;8378;57.698;11.958;2022-10-14T05:11:09;22.20;99.90
16532;DHT22;8378;57.698;11.958;2022-10-14T05:13:35;22.20;99.90
16532;DHT22;8378;57.698;11.958;2022-10-14T05:16:01;22.20;99.90
16532;DHT22;8378;57.698;11.958;2022-10-14T05:18:27;22.20;99.90
16532;DHT22;8378;57.698;11.958;2022-10-14T05:20:53;22.20;99.90
16532;DHT22;8378;57.698;11.958;2022-10-14T05:23:18;22.20;99.90
16532;DHT22;8378;57.698;11.958;2022-10-14T05:25:44;22.20;99.90
16532;DHT22;8378;57.698;11.958;2022-10-14T05:28:10;22.20;99.90
16532;DHT22;8378;57.698;11.958;2022-10-14T05:30:35;22.20;99.90
16532;DHT22;8378;57.698;11.958;2022-10-14T05:33:01;22.30;99.90
16532;DHT22;8378;57.698;11.958;2022-10-14T05:35:26;22.20;99.90
16532;DHT22;8378;57.698;11.958;2022-10-14T05:37:55;22.20;99.90
16532;DHT22;8378;57.698;11.958;2022-10-14T05:40:22;22.20;99.90
16532;DHT22;8378;57.698;11.958;2022-10-14T05:42:48;22.30;99.90
16532;DHT22;8378;57.698;11.958;2022-10-14T05:45:14;22.30;99.90
16532;DHT22;8378;57.698;11.958;2022-10-14T05:47:42;22.20;99.90
16532;DHT22;8378;57.698;11.958;2022-10-14T05:50:08;22.20;99.90
16532;DHT22;8378;57.698;11.958;2022-10-14T05:52:34;22.20;99.90
16532;DHT22;8378;57.698;11.958;2022-10-14T05:55:00;22.20;99.90
16532;DHT22;8378;57.698;11.958;2022-10-14T05:57:26;22.20;99.90
16532;DHT22;8378;57.698;11.958;2022-10-14T05:59:52;22.20;99.90
16532;DHT22;8378;57.698;11.958;2022-10-14T06:02:18;22.30;99.90
16532;DHT22;8378;57.698;11.958;2022-10-14T06:04:43;22.30;99.90
16532;DHT22;8378;57.698;11.958;2022-10-14T06:07:09;22.30;99.90
16532;DHT22;8378;57.698;11.958;2022-10-14T06:09:38;22.30;99.90
16532;DHT22;8378;57.698;11.958;2022-10-14T06:12:04;22.30;99.90
16532;DHT22;8378;57.698;11.958;2022-10-14T06:14:30;22.30;99.90
16532;DHT22;8378;57.698;11.958;2022-10-14T06:16:56;22.30;99.90
16532;DHT22;8378;57.698;11.958;2022-10-14T06:19:21;22.30;99.90
16532;DHT22;8378;57.698;11.958;2022-10-14T06:21:47;22.30;99.90
16532;DHT22;8378;57.698;11.958;2022-10-14T06:24:13;22.30;99.90
16532;DHT22;8378;57.698;11.958;2022-10-14T06:26:39;22.30;99.90
16532;DHT22;8378;57.698;11.958;2022-10-14T06:29:05;22.30;99.90
16532;DHT22;8378;57.698;11.958;2022-10-14T06:31:30;22.30;99.90
16532;DHT22;8378;57.698;11.958;2022-10-14T06:33:56;22.30;99.90
16532;DHT22;8378;57.698;11.958;2022-10-14T06:36:22;22.30;99.90
16532;DHT22;8378;57.698;11.958;2022-10-14T06:38:47;22.30;99.90
16532;DHT22;8378;57.698;11.958;2022-10-14T06:41:13;22.30;99.90
16532;DHT22;8378;57.698;11.958;2022-10-14T06:43:39;22.30;99.90
16532;DHT22;8378;57.698;11.958;2022-10-14T06:46:05;22.30;99.90
16532;DHT22;8378;57.698;11.958;2022-10-14T06:48:30;22.30;99.90
16532;DHT22;8378;57.698;11.958;2022-10-14T06:51:00;22.30;99.90
16532;DHT22;8378;57.698;11.958;2022-10-14T06:53:27;22.30;99.90
16532;DHT22;8378;57.698;11.958;2022-10-14T06:55:57;22.30;99.90
16532;DHT22;8378;57.698;11.958;2022-10-14T06:58:23;22.30;99.90
16532;DHT22;8378;57.698;11.958;2022-10-14T07:00:48;22.30;99.90
16532;DHT22;8378;57.698;11.958;2022-10-14T07:03:14;22.30;99.90
16532;DHT22;8378;57.698;11.958;2022-10-14T07:05:40;22.30;99.90
16532;DHT22;8378;57.698;11.958;2022-10-14T07:08:05;22.30;99.90
16532;DHT22;8378;57.698;11.958;2022-10-14T07:10:31;22.30;99.90
16532;DHT22;8378;57.698;11.958;2022-10-14T07:12:57;22.30;99.90
16532;DHT22;8378;57.698;11.958;2022-10-14T07:15:22;22.30;99.90
16532;DHT22;8378;57.698;11.958;2022-10-14T07:17:48;22.30;99.90
16532;DHT22;8378;57.698;11.958;2022-10-14T07:20:13;22.30;99.90
16532;DHT22;8378;57.698;11.958;2022-10-14T07:22:39;22.30;99.90
16532;DHT22;8378;57.698;11.958;2022-10-14T07:25:05;22.30;99.90
16532;DHT22;8378;57.698;11.958;2022-10-14T07:27:31;22.30;99.90
16532;DHT22;8378;57.698;11.958;2022-10-14T07:29:57;22.30;99.90
16532;DHT22;8378;57.698;11.958;2022-10-14T07:32:22;22.30;99.90
16532;DHT22;8378;57.698;11.958;2022-10-14T07:34:48;22.30;99.90
16532;DHT22;8378;57.698;11.958;2022-10-14T07:37:13;22.30;99.90
16532;DHT22;8378;57.698;11.958;2022-10-14T07:39:39;22.30;99.90
16532;DHT22;8378;57.698;11.958;2022-10-14T07:42:04;22.30;99.90
16532;DHT22;8378;57.698;11.958;2022-10-14T07:44:30;22.30;99.90
16532;DHT22;8378;57.698;11.958;2022-10-14T07:46:56;22.30;99.90
16532;DHT22;8378;57.698;11.958;2022-10-14T07:49:23;22.30;99.90
16532;DHT22;8378;57.698;11.958;2022-10-14T07:51:49;22.30;99.90
16532;DHT22;8378;57.698;11.958;2022-10-14T07:54:18;22.30;99.90
16532;DHT22;8378;57.698;11.958;2022-10-14T07:56:44;22.30;99.90
16532;DHT22;8378;57.698;11.958;2022-10-14T07:59:11;22.30;99.90
16532;DHT22;8378;57.698;11.958;2022-10-14T08:01:37;22.30;99.90
16532;DHT22;8378;57.698;11.958;2022-10-14T08:04:03;22.30;99.90
16532;DHT22;8378;57.698;11.958;2022-10-14T08:06:28;22.30;99.90
16532;DHT22;8378;57.698;11.958;2022-10-14T08:08:54;22.30;99.90
16532;DHT22;8378;57.698;11.958;2022-10-14T08:11:23;22.30;99.90
16532;DHT22;8378;57.698;11.958;2022-10-14T08:13:49;22.30;99.90
16532;DHT22;8378;57.698;11.958;2022-10-14T08:16:21;22.30;99.90
16532;DHT22;8378;57.698;11.958;2022-10-14T08:18:47;22.30;99.90
16532;DHT22;8378;57.698;11.958;2022-10-14T08:21:13;22.30;99.90
16532;DHT22;8378;57.698;11.958;2022-10-14T08:23:39;22.30;99.90
16532;DHT22;8378;57.698;11.958;2022-10-14T08:28:40;22.30;99.90
16532;DHT22;8378;57.698;11.958;2022-10-14T08:31:05;22.30;99.90
16532;DHT22;8378;57.698;11.958;2022-10-14T08:33:31;22.30;99.90
16532;DHT22;8378;57.698;11.958;2022-10-14T08:35:56;22.30;99.90
16532;DHT22;8378;57.698;11.958;2022-10-14T08:38:22;22.30;99.90
16532;DHT22;8378;57.698;11.958;2022-10-14T08:41:06;22.30;99.90
16532;DHT22;8378;57.698;11.958;2022-10-14T08:43:53;22.30;99.90
16532;DHT22;8378;57.698;11.958;2022-10-14T08:49:05;22.30;99.90
16532;DHT22;8378;57.698;11.958;2022-10-14T08:51:34;22.30;99.90
16532;DHT22;8378;57.698;11.958;2022-10-14T08:54:05;22.30;99.90
16532;DHT22;8378;57.698;11.958;2022-10-14T08:56:35;22.30;99.90
16532;DHT22;8378;57.698;11.958;2022-10-14T08:59:15;22.30;99.90
16532;DHT22;8378;57.698;11.958;2022-10-14T09:01:59;22.30;99.90
16532;DHT22;8378;57.698;11.958;2022-10-14T09:04:26;22.30;99.90
16532;DHT22;8378;57.698;11.958;2022-10-14T09:06:53;22.30;99.90
16532;DHT22;8378;57.698;11.958;2022-10-14T09:09:42;22.30;99.90
16532;DHT22;8378;57.698;11.958;2022-10-14T09:12:14;22.40;99.90
16532;DHT22;8378;57.698;11.958;2022-10-14T09:14:47;22.40;99.90
16532;DHT22;8378;57.698;11.958;2022-10-14T09:17:22;22.30;99.90
16532;DHT22;8378;57.698;11.958;2022-10-14T09:20:24;22.40;99.90
16532;DHT22;8378;57.698;11.958;2022-10-14T09:23:15;22.40;99.90
16532;DHT22;8378;57.698;11.958;2022-10-14T09:26:07;22.40;99.90
16532;DHT22;8378;57.698;11.958;2022-10-14T09:28:39;22.40;99.90
16532;DHT22;8378;57.698;11.958;2022-10-14T09:31:07;22.40;99.90
16532;DHT22;8378;57.698;11.958;2022-10-14T09:33:35;22.40;99.90
16532;DHT22;8378;57.698;11.958;2022-10-14T09:36:14;22.40;99.90
16532;DHT22;8378;57.698;11.958;2022-10-14T09:38:41;22.40;99.90
16532;DHT22;8378;57.698;11.958;2022-10-14T09:41:10;22.40;99.90
16532;DHT22;8378;57.698;11.958;2022-10-14T09:43:36;22.40;99.90
16532;DHT22;8378;57.698;11.958;2022-10-14T09:46:07;22.40;99.90
16532;DHT22;8378;57.698;11.958;2022-10-14T09:48:48;22.40;99.90
16532;DHT22;8378;57.698;11.958;2022-10-14T09:51:23;22.40;99.90
16532;DHT22;8378;57.698;11.958;2022-10-14T09:53:52;22.40;99.90
16532;DHT22;8378;57.698;11.958;2022-10-14T09:56:45;22.40;99.90
16532;DHT22;8378;57.698;11.958;2022-10-14T09:59:16;22.40;99.90
16532;DHT22;8378;57.698;11.958;2022-10-14T10:01:54;22.40;99.90
16532;DHT22;8378;57.698;11.958;2022-10-14T10:04:33;22.40;99.90
16532;DHT22;8378;57.698;11.958;2022-10-14T10:07:22;22.50;99.90
16532;DHT22;8378;57.698;11.958;2022-10-14T10:09:53;22.50;99.90
16532;DHT22;8378;57.698;11.958;2022-10-14T10:12:31;22.50;99.90
16532;DHT22;8378;57.698;11.958;2022-10-14T10:15:02;22.50;99.90
16532;DHT22;8378;57.698;11.958;2022-10-14T10:17:34;22.50;99.90
16532;DHT22;8378;57.698;11.958;2022-10-14T10:20:24;22.50;99.90
16532;DHT22;8378;57.698;11.958;2022-10-14T10:22:57;22.50;99.90
16532;DHT22;8378;57.698;11.958;2022-10-14T10:25:26;22.50;99.90
16532;DHT22;8378;57.698;11.958;2022-10-14T10:27:53;22.50;99.90
16532;DHT22;8378;57.698;11.958;2022-10-14T10:30:30;22.50;99.90
16532;DHT22;8378;57.698;11.958;2022-10-14T10:33:12;22.50;99.90
16532;DHT22;8378;57.698;11.958;2022-10-14T10:38:41;22.50;99.90
16532;DHT22;8378;57.698;11.958;2022-10-14T10:51:53;22.60;99.90
16532;DHT22;8378;57.698;11.958;2022-10-14T10:54:37;22.60;99.90
16532;DHT22;8378;57.698;11.958;2022-10-14T11:00:12;22.60;99.90
16532;DHT22;8378;57.698;11.958;2022-10-14T11:05:32;22.70;99.90
16532;DHT22;8378;57.698;11.958;2022-10-14T11:19:52;22.80;99.90
16532;DHT22;8378;57.698;11.958;2022-10-14T11:27:49;22.90;99.90
16532;DHT22;8378;57.698;11.958;2022-10-14T11:30:20;22.90;99.90
16532;DHT22;8378;57.698;11.958;2022-10-14T11:33:08;22.90;99.90
16532;DHT22;8378;57.698;11.958;2022-10-14T11:36:03;23.00;99.90
16532;DHT22;8378;57.698;11.958;2022-10-14T11:44:32;23.10;99.90
16532;DHT22;8378;57.698;11.958;2022-10-14T11:47:17;23.10;99.90
16532;DHT22;8378;57.698;11.958;2022-10-14T11:49:49;23.20;99.90
16532;DHT22;8378;57.698;11.958;2022-10-14T11:52:27;23.20;99.90
16532;DHT22;8378;57.698;11.958;2022-10-14T11:55:02;23.30;99.90
16532;DHT22;8378;57.698;11.958;2022-10-14T11:57:59;23.40;99.90
16532;DHT22;8378;57.698;11.958;2022-10-14T12:00:26;23.40;99.90
16532;DHT22;8378;57.698;11.958;2022-10-14T12:05:47;23.50;99.90
16532;DHT22;8378;57.698;11.958;2022-10-14T12:08:42;23.50;99.90
16532;DHT22;8378;57.698;11.958;2022-10-14T12:13:48;23.60;99.90
16532;DHT22;8378;57.698;11.958;2022-10-14T12:16:19;23.60;99.90
16532;DHT22;8378;57.698;11.958;2022-10-14T12:18:49;23.70;99.90
16532;DHT22;8378;57.698;11.958;2022-10-14T12:24:08;23.70;99.90
16532;DHT22;8378;57.698;11.958;2022-10-14T12:29:02;23.70;99.90
16532;DHT22;8378;57.698;11.958;2022-10-14T12:31:35;23.70;99.90
16532;DHT22;8378;57.698;11.958;2022-10-14T12:36:39;23.70;99.90
16532;DHT22;8378;57.698;11.958;2022-10-14T12:42:04;23.70;99.90
16532;DHT22;8378;57.698;11.958;2022-10-14T12:44:56;23.70;99.90
16532;DHT22;8378;57.698;11.958;2022-10-14T12:49:55;23.70;99.90
16532;DHT22;8378;57.698;11.958;2022-10-14T12:52:33;23.70;99.90
16532;DHT22;8378;57.698;11.958;2022-10-14T12:55:06;23.70;99.90
16532;DHT22;8378;57.698;11.958;2022-10-14T12:57:35;23.70;99.90
16532;DHT22;8378;57.698;11.958;2022-10-14T13:00:05;23.60;99.90
16532;DHT22;8378;57.698;11.958;2022-10-14T13:02:43;23.70;99.90
16532;DHT22;8378;57.698;11.958;2022-10-14T13:05:40;23.60;99.90
16532;DHT22;8378;57.698;11.958;2022-10-14T13:16:52;23.50;99.90
16532;DHT22;8378;57.698;11.958;2022-10-14T13:18:59;23.50;99.90
16532;DHT22;8378;57.698;11.958;2022-10-14T13:21:29;23.50;99.90
16532;DHT22;8378;57.698;11.958;2022-10-14T13:24:22;23.50;99.90
16532;DHT22;8378;57.698;11.958;2022-10-14T13:27:13;23.40;99.90
16532;DHT22;8378;57.698;11.958;2022-10-14T13:40:34;23.30;99.90
16532;DHT22;8378;57.698;11.958;2022-10-14T13:45:43;23.30;99.90
16532;DHT22;8378;57.698;11.958;2022-10-14T13:48:29;23.30;99.90
16532;DHT22;8378;57.698;11.958;2022-10-14T13:53:32;23.20;99.90
16532;DHT22;8378;57.698;11.958;2022-10-14T13:55:58;23.20;99.90
16532;DHT22;8378;57.698;11.958;2022-10-14T13:58:24;23.20;99.90
16532;DHT22;8378;57.698;11.958;2022-10-14T14:05:53;23.20;99.90
16532;DHT22;8378;57.698;11.958;2022-10-14T14:08:28;23.20;99.90
16532;DHT22;8378;57.698;11.958;2022-10-14T14:10:59;23.10;99.90
16532;DHT22;8378;57.698;11.958;2022-10-14T14:13:27;23.10;99.90
16532;DHT22;8378;57.698;11.958;2022-10-14T14:15:54;23.10;99.90
16532;DHT22;8378;57.698;11.958;2022-10-14T14:18:34;23.10;99.90
16532;DHT22;8378;57.698;11.958;2022-10-14T14:21:02;23.10;99.90
16532;DHT22;8378;57.698;11.958;2022-10-14T14:23:28;23.10;99.90
16532;DHT22;8378;57.698;11.958;2022-10-14T14:25:55;23.10;99.90
16532;DHT22;8378;57.698;11.958;2022-10-14T14:28:21;23.10;99.90
16532;DHT22;8378;57.698;11.958;2022-10-14T14:30:52;23.10;99.90
16532;DHT22;8378;57.698;11.958;2022-10-14T14:33:24;23.10;99.90
16532;DHT22;8378;57.698;11.958;2022-10-14T14:36:03;23.00;99.90
16532;DHT22;8378;57.698;11.958;2022-10-14T14:38:34;23.00;99.90
16532;DHT22;8378;57.698;11.958;2022-10-14T14:41:05;23.00;99.90
16532;DHT22;8378;57.698;11.958;2022-10-14T14:43:32;23.00;99.90
16532;DHT22;8378;57.698;11.958;2022-10-14T14:46:00;23.00;99.90
16532;DHT22;8378;57.698;11.958;2022-10-14T14:48:28;23.00;99.90
16532;DHT22;8378;57.698;11.958;2022-10-14T14:50:54;23.00;99.90
16532;DHT22;8378;57.698;11.958;2022-10-14T14:53:22;23.00;99.90
16532;DHT22;8378;57.698;11.958;2022-10-14T15:00:51;22.90;99.90
16532;DHT22;8378;57.698;11.958;2022-10-14T15:03:20;22.90;99.90
16532;DHT22;8378;57.698;11.958;2022-10-14T15:05:56;22.90;99.90
16532;DHT22;8378;57.698;11.958;2022-10-14T15:08:24;22.90;99.90
16532;DHT22;8378;57.698;11.958;2022-10-14T15:10:52;22.90;99.90
16532;DHT22;8378;57.698;11.958;2022-10-14T15:13:30;22.90;99.90
16532;DHT22;8378;57.698;11.958;2022-10-14T15:15:56;22.80;99.90
16532;DHT22;8378;57.698;11.958;2022-10-14T15:18:24;22.80;99.90
16532;DHT22;8378;57.698;11.958;2022-10-14T15:31:34;22.80;99.90
16532;DHT22;8378;57.698;11.958;2022-10-14T15:34:00;22.80;99.90
16532;DHT22;8378;57.698;11.958;2022-10-14T15:36:35;22.80;99.90
16532;DHT22;8378;57.698;11.958;2022-10-14T15:39:01;22.80;99.90
16532;DHT22;8378;57.698;11.958;2022-10-14T15:41:28;22.80;99.90
16532;DHT22;8378;57.698;11.958;2022-10-14T15:43:53;22.70;99.90
16532;DHT22;8378;57.698;11.958;2022-10-14T15:46:19;22.70;99.90
16532;DHT22;8378;57.698;11.958;2022-10-14T15:49:12;22.70;99.90
16532;DHT22;8378;57.698;11.958;2022-10-14T15:51:39;22.70;99.90
16532;DHT22;8378;57.698;11.958;2022-10-14T15:54:07;22.70;99.90
16532;DHT22;8378;57.698;11.958;2022-10-14T15:56:33;22.70;99.90
16532;DHT22;8378;57.698;11.958;2022-10-14T15:58:59;22.70;99.90
16532;DHT22;8378;57.698;11.958;2022-10-14T16:01:25;22.70;99.90
16532;DHT22;8378;57.698;11.958;2022-10-14T16:03:51;22.70;99.90
16532;DHT22;8378;57.698;11.958;2022-10-14T16:06:17;22.70;99.90
16532;DHT22;8378;57.698;11.958;2022-10-14T16:08:44;22.70;99.90
16532;DHT22;8378;57.698;11.958;2022-10-14T16:11:26;22.70;99.90
16532;DHT22;8378;57.698;11.958;2022-10-14T16:13:52;22.70;99.90
16532;DHT22;8378;57.698;11.958;2022-10-14T16:16:25;22.70;99.90
16532;DHT22;8378;57.698;11.958;2022-10-14T16:18:53;22.60;99.90
16532;DHT22;8378;57.698;11.958;2022-10-14T16:21:18;22.60;99.90
16532;DHT22;8378;57.698;11.958;2022-10-14T16:23:44;22.60;99.90
16532;DHT22;8378;57.698;11.958;2022-10-14T16:26:10;22.60;99.90
16532;DHT22;8378;57.698;11.958;2022-10-14T16:28:38;22.60;99.90
16532;DHT22;8378;57.698;11.958;2022-10-14T16:31:04;22.60;99.90
16532;DHT22;8378;57.698;11.958;2022-10-14T16:33:30;22.60;99.90
16532;DHT22;8378;57.698;11.958;2022-10-14T16:35:57;22.60;99.90
16532;DHT22;8378;57.698;11.958;2022-10-14T16:38:24;22.60;99.90
16532;DHT22;8378;57.698;11.958;2022-10-14T16:41:00;22.60;99.90
16532;DHT22;8378;57.698;11.958;2022-10-14T16:43:27;22.60;99.90
16532;DHT22;8378;57.698;11.958;2022-10-14T16:45:56;22.60;99.90
16532;DHT22;8378;57.698;11.958;2022-10-14T16:48:22;22.60;99.90
16532;DHT22;8378;57.698;11.958;2022-10-14T16:50:49;22.60;99.90
16532;DHT22;8378;57.698;11.958;2022-10-14T16:53:15;22.60;99.90
16532;DHT22;8378;57.698;11.958;2022-10-14T16:55:59;22.60;99.90
16532;DHT22;8378;57.698;11.958;2022-10-14T16:58:24;22.60;99.90
16532;DHT22;8378;57.698;11.958;2022-10-14T17:00:52;22.60;99.90
16532;DHT22;8378;57.698;11.958;2022-10-14T17:03:18;22.50;99.90
16532;DHT22;8378;57.698;11.958;2022-10-14T17:05:43;22.50;99.90
16532;DHT22;8378;57.698;11.958;2022-10-14T17:08:11;22.50;99.90
16532;DHT22;8378;57.698;11.958;2022-10-14T17:10:37;22.60;99.90
16532;DHT22;8378;57.698;11.958;2022-10-14T17:13:03;22.50;99.90
16532;DHT22;8378;57.698;11.958;2022-10-14T17:15:29;22.50;99.90
16532;DHT22;8378;57.698;11.958;2022-10-14T17:17:54;22.50;99.90
16532;DHT22;8378;57.698;11.958;2022-10-14T17:20:20;22.50;99.90
16532;DHT22;8378;57.698;11.958;2022-10-14T17:22:46;22.50;99.90
16532;DHT22;8378;57.698;11.958;2022-10-14T17:25:14;22.50;99.90
16532;DHT22;8378;57.698;11.958;2022-10-14T17:27:40;22.50;99.90
16532;DHT22;8378;57.698;11.958;2022-10-14T17:30:06;22.50;99.90
16532;DHT22;8378;57.698;11.958;2022-10-14T17:32:32;22.50;99.90
16532;DHT22;8378;57.698;11.958;2022-10-14T17:34:57;22.50;99.90
16532;DHT22;8378;57.698;11.958;2022-10-14T17:37:23;22.50;99.90
16532;DHT22;8378;57.698;11.958;2022-10-14T17:39:48;22.50;99.90
16532;DHT22;8378;57.698;11.958;2022-10-14T17:42:14;22.50;99.90
16532;DHT22;8378;57.698;11.958;2022-10-14T17:44:40;22.50;99.90
16532;DHT22;8378;57.698;11.958;2022-10-14T17:47:05;22.50;99.90
16532;DHT22;8378;57.698;11.958;2022-10-14T17:49:31;22.50;99.90
16532;DHT22;8378;57.698;11.958;2022-10-14T17:51:59;22.50;99.90
16532;DHT22;8378;57.698;11.958;2022-10-14T17:54:27;22.50;99.90
16532;DHT22;8378;57.698;11.958;2022-10-14T17:56:53;22.50;99.90
16532;DHT22;8378;57.698;11.958;2022-10-14T17:59:18;22.50;99.90